createdAt,value
2022-09-03T00:01:59.022Z,3.10
2022-09-03T00:04:37.443Z,3.10
2022-09-03T00:07:15.598Z,2.90
2022-09-03T00:09:51.748Z,2.83
2022-09-03T00:12:26.637Z,2.55
2022-09-03T00:15:19.614Z,2.97
2022-09-03T00:18:03.268Z,2.35
2022-09-03T00:20:33.406Z,2.60
2022-09-03T00:23:06.763Z,2.80
2022-09-03T00:25:37.529Z,2.72
2022-09-03T00:28:13.845Z,2.92
2022-09-03T00:30:42.828Z,2.70
2022-09-03T00:33:19.230Z,2.85
2022-09-03T00:35:51.992Z,2.80
2022-09-03T00:38:22.393Z,2.80
2022-09-03T00:41:25.833Z,2.72
2022-09-03T00:43:53.469Z,3.08
2022-09-03T00:47:07.152Z,3.00
2022-09-03T00:49:47.690Z,3.10
2022-09-03T00:52:33.692Z,3.03
2022-09-03T00:55:34.801Z,3.00
2022-09-03T00:58:12.984Z,3.15
2022-09-03T01:00:43.820Z,3.10
2022-09-03T01:03:19.613Z,3.17
2022-09-03T01:06:03.555Z,3.28
2022-09-03T01:08:51.210Z,3.05
2022-09-03T01:11:38.511Z,3.08
2022-09-03T01:14:19.954Z,2.80
2022-09-03T01:17:12.510Z,3.22
2022-09-03T01:19:52.427Z,2.90
2022-09-03T01:22:57.571Z,3.40
2022-09-03T01:25:44.614Z,3.10
2022-09-03T01:28:49.413Z,3.25
2022-09-03T01:31:36.295Z,3.05
2022-09-03T01:34:19.858Z,3.28
2022-09-03T01:37:13.190Z,3.22
2022-09-03T01:40:03.037Z,3.62
2022-09-03T01:42:37.066Z,3.83
2022-09-03T01:45:24.400Z,3.12
2022-09-03T01:48:38.782Z,3.33
2022-09-03T01:51:19.629Z,2.95
2022-09-03T01:53:53.564Z,3.28
2022-09-03T01:56:58.966Z,3.67
2022-09-03T01:59:59.676Z,3.35
2022-09-03T02:02:28.715Z,3.25
2022-09-03T02:05:15.852Z,3.45
2022-09-03T02:07:54.937Z,3.30
2022-09-03T02:10:45.662Z,3.37
2022-09-03T02:13:39.702Z,2.97
2022-09-03T02:16:17.409Z,3.37
2022-09-03T02:19:10.993Z,3.67
2022-09-03T02:21:42.736Z,3.75
2022-09-03T02:24:10.499Z,3.60
2022-09-03T02:26:38.331Z,3.85
2022-09-03T02:29:06.599Z,3.37
2022-09-03T02:31:34.490Z,3.75
2022-09-03T02:34:02.238Z,3.42
2022-09-03T02:36:35.606Z,4.07
2022-09-03T02:39:04.453Z,3.97
2022-09-03T02:41:33.191Z,3.78
2022-09-03T02:44:11.840Z,3.80
2022-09-03T02:46:44.472Z,3.95
2022-09-03T02:49:12.552Z,3.95
2022-09-03T02:51:42.932Z,4.10
2022-09-03T02:54:11.924Z,4.35
2022-09-03T02:56:40.259Z,4.15
2022-09-03T02:59:09.656Z,4.20
2022-09-03T03:01:37.998Z,4.32
2022-09-03T03:04:06.065Z,3.97
2022-09-03T03:06:33.869Z,4.22
2022-09-03T03:09:01.794Z,4.57
2022-09-03T03:11:30.624Z,5.90
2022-09-03T03:13:58.318Z,4.25
2022-09-03T03:16:26.063Z,4.05
2022-09-03T03:18:56.751Z,4.18
2022-09-03T03:21:24.711Z,4.40
2022-09-03T03:23:52.773Z,4.25
2022-09-03T03:26:22.918Z,4.07
2022-09-03T03:28:56.899Z,4.00
2022-09-03T03:31:25.252Z,4.10
2022-09-03T03:33:54.845Z,3.97
2022-09-03T03:36:24.796Z,4.40
2022-09-03T03:38:58.152Z,3.97
2022-09-03T03:41:34.359Z,4.15
2022-09-03T03:44:05.381Z,3.85
2022-09-03T03:46:36.521Z,4.05
2022-09-03T03:49:06.818Z,4.37
2022-09-03T03:51:36.143Z,4.05
2022-09-03T03:54:05.646Z,4.35
2022-09-03T03:56:34.763Z,4.35
2022-09-03T03:59:03.127Z,4.55
2022-09-03T04:01:31.561Z,4.57
2022-09-03T04:04:00.521Z,4.95
2022-09-03T04:06:28.905Z,4.50
2022-09-03T04:08:56.635Z,4.30
2022-09-03T04:11:25.527Z,4.43
2022-09-03T04:13:53.862Z,4.37
2022-09-03T04:16:24.043Z,3.72
2022-09-03T04:18:56.507Z,4.05
2022-09-03T04:21:29.791Z,4.40
2022-09-03T04:23:58.693Z,4.60
2022-09-03T04:26:31.943Z,4.15
2022-09-03T04:29:02.442Z,4.57
2022-09-03T04:31:30.586Z,4.35
2022-09-03T04:33:59.833Z,4.47
2022-09-03T04:36:30.059Z,3.75
2022-09-03T04:39:01.792Z,4.37
2022-09-03T04:41:31.650Z,4.45
2022-09-03T04:44:00.239Z,4.22
2022-09-03T04:46:33.700Z,3.95
2022-09-03T04:49:02.573Z,4.00
2022-09-03T04:51:31.582Z,3.90
2022-09-03T04:54:01.688Z,4.05
2022-09-03T04:56:36.483Z,3.75
2022-09-03T04:59:08.217Z,4.90
2022-09-03T05:01:39.010Z,4.57
2022-09-03T05:04:08.266Z,4.05
2022-09-03T05:06:37.478Z,3.78
2022-09-03T05:09:06.138Z,3.80
2022-09-03T05:11:34.457Z,3.67
2022-09-03T05:14:02.577Z,3.53
2022-09-03T05:16:31.141Z,3.75
2022-09-03T05:19:01.251Z,3.58
2022-09-03T05:21:30.111Z,3.10
2022-09-03T05:23:59.769Z,3.15
2022-09-03T05:26:30.025Z,3.30
2022-09-03T05:29:00.485Z,3.33
2022-09-03T05:31:31.988Z,3.28
2022-09-03T05:34:03.276Z,3.40
2022-09-03T05:36:37.413Z,2.70
2022-09-03T05:39:06.543Z,2.12
2022-09-03T05:41:34.462Z,2.12
2022-09-03T05:44:02.526Z,2.45
2022-09-03T05:46:32.477Z,2.55
2022-09-03T05:49:02.460Z,2.28
2022-09-03T05:51:32.046Z,2.60
2022-09-03T05:54:00.138Z,2.58
2022-09-03T05:56:29.537Z,2.58
2022-09-03T05:59:05.714Z,2.55
2022-09-03T06:01:50.712Z,2.70
2022-09-03T06:04:20.943Z,3.12
2022-09-03T06:06:49.088Z,2.45
2022-09-03T06:09:19.365Z,2.58
2022-09-03T06:11:50.078Z,4.32
2022-09-03T06:14:18.276Z,3.80
2022-09-03T06:16:49.686Z,2.45
2022-09-03T06:19:17.988Z,3.10
2022-09-03T06:21:46.910Z,2.80
2022-09-03T06:24:20.379Z,1.90
2022-09-03T06:26:49.192Z,2.00
2022-09-03T06:29:19.261Z,2.42
2022-09-03T06:31:48.939Z,2.05
2022-09-03T06:34:20.146Z,1.77
2022-09-03T06:39:15.619Z,1.75
2022-09-03T06:41:44.946Z,2.08
2022-09-03T06:44:13.222Z,2.00
2022-09-03T06:46:44.685Z,2.00
2022-09-03T06:49:13.016Z,1.77
2022-09-03T06:51:41.459Z,1.80
2022-09-03T06:54:11.686Z,1.73
2022-09-03T06:59:14.525Z,1.65
2022-09-03T07:01:46.053Z,2.20
2022-09-03T07:04:20.417Z,1.67
2022-09-03T07:06:48.929Z,1.87
2022-09-03T07:09:18.437Z,1.90
2022-09-03T07:11:47.970Z,1.70
2022-09-03T07:14:18.847Z,1.77
2022-09-03T07:16:47.815Z,1.62
2022-09-03T07:19:16.699Z,1.87
2022-09-03T07:21:49.733Z,1.60
2022-09-03T07:24:19.935Z,1.40
2022-09-03T07:26:49.238Z,1.27
2022-09-03T07:29:20.958Z,1.17
2022-09-03T07:31:53.587Z,1.50
2022-09-03T07:34:25.610Z,1.62
2022-09-03T07:36:55.058Z,1.40
2022-09-03T07:39:22.907Z,1.25
2022-09-03T07:41:50.765Z,1.40
2022-09-03T07:44:24.493Z,1.33
2022-09-03T07:46:52.628Z,1.37
2022-09-03T07:49:22.280Z,1.40
2022-09-03T07:51:52.466Z,1.65
2022-09-03T07:54:22.039Z,1.60
2022-09-03T07:56:49.783Z,1.70
2022-09-03T07:59:17.676Z,1.55
2022-09-03T08:01:45.997Z,1.75
2022-09-03T08:04:14.236Z,1.62
2022-09-03T08:06:42.463Z,1.90
2022-09-03T08:09:13.709Z,1.70
2022-09-03T08:11:43.758Z,1.73
2022-09-03T08:14:13.512Z,1.77
2022-09-03T08:16:49.384Z,2.33
2022-09-03T08:19:22.193Z,1.70
2022-09-03T08:21:49.970Z,1.50
2022-09-03T08:24:21.153Z,1.55
2022-09-03T08:26:52.114Z,1.30
2022-09-03T08:29:21.789Z,1.50
2022-09-03T08:31:50.690Z,1.42
2022-09-03T08:34:19.058Z,1.27
2022-09-03T08:36:47.820Z,1.23
2022-09-03T08:39:16.836Z,1.10
2022-09-03T08:41:53.680Z,1.27
2022-09-03T08:44:36.715Z,1.20
2022-09-03T08:47:29.566Z,1.23
2022-09-03T08:50:02.574Z,1.15
2022-09-03T08:52:39.166Z,1.30
2022-09-03T08:55:20.953Z,1.33
2022-09-03T08:57:51.613Z,1.23
2022-09-03T09:00:20.122Z,1.20
2022-09-03T09:03:05.176Z,1.02
2022-09-03T09:05:55.637Z,1.20
2022-09-03T09:08:42.416Z,1.20
2022-09-03T09:11:31.866Z,1.40
2022-09-03T09:14:07.153Z,2.00
2022-09-03T09:17:02.168Z,1.60
2022-09-03T09:20:08.262Z,1.50
2022-09-03T09:22:48.041Z,1.45
2022-09-03T09:25:20.958Z,1.45
2022-09-03T09:27:58.038Z,1.52
2022-09-03T09:30:26.047Z,1.50
2022-09-03T09:32:55.424Z,1.02
2022-09-03T09:35:24.019Z,1.15
2022-09-03T09:37:54.490Z,1.20
2022-09-03T09:40:34.582Z,1.20
2022-09-03T09:43:11.019Z,1.17
2022-09-03T09:45:41.385Z,1.30
2022-09-03T09:48:17.982Z,1.27
2022-09-03T09:50:46.176Z,1.58
2022-09-03T09:53:18.004Z,1.45
2022-09-03T09:55:54.682Z,1.30
2022-09-03T09:58:25.815Z,1.27
2022-09-03T10:01:15.166Z,0.90
2022-09-03T10:04:14.152Z,1.33
2022-09-03T10:06:59.417Z,1.10
2022-09-03T10:09:31.403Z,1.20
2022-09-03T10:12:06.166Z,2.10
2022-09-03T10:14:41.318Z,1.15
2022-09-03T10:17:24.979Z,1.35
2022-09-03T10:20:27.726Z,1.10
2022-09-03T10:22:58.235Z,1.30
2022-09-03T10:25:39.068Z,1.20
2022-09-03T10:28:13.536Z,1.20
2022-09-03T10:30:56.731Z,1.77
2022-09-03T10:33:42.568Z,1.30
2022-09-03T10:36:33.599Z,1.27
2022-09-03T10:39:04.247Z,1.50
2022-09-03T10:42:13.389Z,1.30
2022-09-03T10:45:19.339Z,1.20
2022-09-03T10:48:20.945Z,1.08
2022-09-03T10:50:52.749Z,1.15
2022-09-03T10:53:44.333Z,1.00
2022-09-03T10:56:18.124Z,1.05
2022-09-03T10:58:57.807Z,1.10
2022-09-03T11:01:25.509Z,1.20
2022-09-03T11:04:19.082Z,1.10
2022-09-03T11:07:03.150Z,1.02
2022-09-03T11:09:41.812Z,1.30
2022-09-03T11:12:21.618Z,1.27
2022-09-03T11:14:56.442Z,1.40
2022-09-03T11:17:49.341Z,1.40
2022-09-03T11:20:19.658Z,1.30
2022-09-03T11:22:50.311Z,1.30
2022-09-03T11:25:23.872Z,1.23
2022-09-03T11:28:24.733Z,1.27
2022-09-03T11:31:22.347Z,1.30
2022-09-03T11:33:59.210Z,1.20
2022-09-03T11:36:38.800Z,1.20
2022-09-03T11:39:37.098Z,1.35
2022-09-03T11:42:12.502Z,1.30
2022-09-03T11:44:51.781Z,1.33
2022-09-03T11:47:20.004Z,1.25
2022-09-03T11:49:50.883Z,1.30
2022-09-03T11:52:32.623Z,1.40
2022-09-03T11:55:00.718Z,1.50
2022-09-03T11:57:33.573Z,1.42
2022-09-03T12:00:18.239Z,1.05
2022-09-03T12:02:49.627Z,1.20
2022-09-03T12:05:26.472Z,1.67
2022-09-03T12:08:20.521Z,1.40
2022-09-03T12:11:00.417Z,1.42
2022-09-03T12:14:05.535Z,1.30
2022-09-03T12:16:48.693Z,1.20
2022-09-03T12:19:25.792Z,1.50
2022-09-03T12:21:54.415Z,1.20
2022-09-03T12:24:23.467Z,1.60
2022-09-03T12:26:51.270Z,1.35
2022-09-03T12:29:28.362Z,1.23
2022-09-03T12:32:08.562Z,1.08
2022-09-03T12:34:36.360Z,1.40
2022-09-03T12:37:17.395Z,1.15
2022-09-03T12:40:08.828Z,1.35
2022-09-03T12:42:37.194Z,1.52
2022-09-03T12:45:12.496Z,1.30
2022-09-03T12:47:41.928Z,1.30
2022-09-03T12:50:16.898Z,1.42
2022-09-03T12:52:56.834Z,1.25
2022-09-03T12:55:33.237Z,1.30
2022-09-03T12:58:14.267Z,1.50
2022-09-03T13:00:56.456Z,1.40
2022-09-03T13:03:34.562Z,1.40
2022-09-03T13:06:08.200Z,1.50
2022-09-03T13:08:46.324Z,1.50
2022-09-03T13:11:19.523Z,1.60
2022-09-03T13:14:05.505Z,1.60
2022-09-03T13:16:45.414Z,1.40
2022-09-03T13:19:33.402Z,1.40
2022-09-03T13:22:25.143Z,1.40
2022-09-03T13:25:19.740Z,1.60
2022-09-03T13:28:02.825Z,1.70
2022-09-03T13:30:58.525Z,1.75
2022-09-03T13:33:44.626Z,1.42
2022-09-03T13:36:29.380Z,1.30
2022-09-03T13:39:21.871Z,1.30
2022-09-03T13:42:06.751Z,1.52
2022-09-03T13:45:02.226Z,1.40
2022-09-03T13:48:13.281Z,1.60
2022-09-03T13:51:18.494Z,1.60
2022-09-03T13:53:46.788Z,1.42
2022-09-03T13:56:22.079Z,1.30
2022-09-03T13:58:58.167Z,1.20
2022-09-03T14:01:46.162Z,1.30
2022-09-03T14:04:34.295Z,1.30
2022-09-03T14:07:09.714Z,1.20
2022-09-03T14:09:40.837Z,1.30
2022-09-03T14:12:20.315Z,1.30
2022-09-03T14:15:04.987Z,1.37
2022-09-03T14:17:33.083Z,1.58
2022-09-03T14:20:19.833Z,1.45
2022-09-03T14:22:56.590Z,1.45
2022-09-03T14:25:26.998Z,1.50
2022-09-03T14:28:12.669Z,1.20
2022-09-03T14:30:55.427Z,1.37
2022-09-03T14:33:31.640Z,1.25
2022-09-03T14:36:13.565Z,1.60
2022-09-03T14:39:01.145Z,1.33
2022-09-03T14:42:04.869Z,1.48
2022-09-03T14:45:06.770Z,1.35
2022-09-03T14:47:51.829Z,1.48
2022-09-03T14:50:28.556Z,1.30
2022-09-03T14:53:21.336Z,1.50
2022-09-03T14:55:55.030Z,1.67
2022-09-03T14:58:41.380Z,1.42
2022-09-03T15:01:17.987Z,2.78
2022-09-03T15:04:10.284Z,3.30
2022-09-03T15:07:17.871Z,1.70
2022-09-03T15:10:02.592Z,1.40
2022-09-03T15:12:43.383Z,1.20
2022-09-03T15:15:24.886Z,1.40
2022-09-03T15:17:58.578Z,1.40
2022-09-03T15:20:50.650Z,1.42
2022-09-03T15:24:00.261Z,1.60
2022-09-03T15:27:06.163Z,1.60
2022-09-03T15:29:52.110Z,1.23
2022-09-03T15:32:46.567Z,1.60
2022-09-03T15:35:29.922Z,1.73
2022-09-03T15:38:04.290Z,1.80
2022-09-03T15:41:04.671Z,1.50
2022-09-03T15:46:29.771Z,1.67
2022-09-03T15:49:05.562Z,1.75
2022-09-03T15:51:41.248Z,1.60
2022-09-03T15:54:33.506Z,1.62
2022-09-03T15:57:12.634Z,1.50
2022-09-03T15:59:51.414Z,1.43
2022-09-03T16:02:35.678Z,1.60
2022-09-03T16:05:18.962Z,1.50
2022-09-03T16:07:49.826Z,1.77
2022-09-03T16:10:25.104Z,1.77
2022-09-03T16:13:19.126Z,1.58
2022-09-03T16:16:01.004Z,1.58
2022-09-03T16:18:47.890Z,1.70
2022-09-03T16:21:39.133Z,1.67
2022-09-03T16:24:17.539Z,1.50
2022-09-03T16:27:11.290Z,1.85
2022-09-03T16:29:39.991Z,1.40
2022-09-03T16:32:23.915Z,1.50
2022-09-03T16:35:14.657Z,1.92
2022-09-03T16:37:51.884Z,1.62
2022-09-03T16:40:58.113Z,1.70
2022-09-03T16:43:44.749Z,1.80
2022-09-03T16:46:33.763Z,2.20
2022-09-03T16:49:23.407Z,2.17
2022-09-03T16:51:50.983Z,1.87
2022-09-03T16:54:50.228Z,1.50
2022-09-03T16:57:54.912Z,1.45
2022-09-03T17:00:41.991Z,1.75
2022-09-03T17:03:28.678Z,1.58
2022-09-03T17:06:02.465Z,1.55
2022-09-03T17:08:58.499Z,1.30
2022-09-03T17:11:41.491Z,1.40
2022-09-03T17:14:43.983Z,1.30
2022-09-03T17:17:20.846Z,1.45
2022-09-03T17:20:14.217Z,1.40
2022-09-03T17:23:00.749Z,1.10
2022-09-03T17:25:40.083Z,1.60
2022-09-03T17:28:43.381Z,1.40
2022-09-03T17:31:27.936Z,1.50
2022-09-03T17:34:02.031Z,1.27
2022-09-03T17:36:31.759Z,1.65
2022-09-03T17:39:17.893Z,1.60
2022-09-03T17:41:55.031Z,2.45
2022-09-03T17:45:16.795Z,3.05
2022-09-03T17:48:16.814Z,3.60
2022-09-03T17:50:44.803Z,3.20
2022-09-03T17:53:26.977Z,3.40
2022-09-03T17:56:03.296Z,3.08
2022-09-03T17:58:49.535Z,3.20
2022-09-03T18:01:26.238Z,2.92
2022-09-03T18:04:13.965Z,4.10
2022-09-03T18:06:41.660Z,2.72
2022-09-03T18:09:38.144Z,2.00
2022-09-03T18:12:08.809Z,2.67
2022-09-03T18:15:04.737Z,3.45
2022-09-03T18:17:39.952Z,3.20
2022-09-03T18:20:32.542Z,3.35
2022-09-03T18:23:24.407Z,2.50
2022-09-03T18:26:20.655Z,2.20
2022-09-03T18:29:21.763Z,2.00
2022-09-03T18:32:08.785Z,2.03
2022-09-03T18:34:56.744Z,1.62
2022-09-03T18:38:04.467Z,1.50
2022-09-03T18:41:02.222Z,1.60
2022-09-03T18:44:05.052Z,1.50
2022-09-03T18:50:32.777Z,1.87
2022-09-03T18:53:29.741Z,1.60
2022-09-03T18:56:27.905Z,1.90
2022-09-03T18:59:28.105Z,1.70
2022-09-03T19:02:15.200Z,1.75
2022-09-03T19:05:33.199Z,2.10
2022-09-03T19:08:41.413Z,1.85
2022-09-03T19:11:40.299Z,1.50
2022-09-03T19:14:52.718Z,1.60
2022-09-03T19:17:42.233Z,1.48
2022-09-03T19:20:47.388Z,1.85
2022-09-03T19:23:34.121Z,1.80
2022-09-03T19:26:37.844Z,1.60
2022-09-03T19:29:39.633Z,1.50
2022-09-03T19:32:38.064Z,1.52
2022-09-03T19:35:37.585Z,1.60
2022-09-03T19:38:59.725Z,1.92
2022-09-03T19:42:22.734Z,1.95
2022-09-03T19:45:27.710Z,1.75
2022-09-03T19:48:32.423Z,2.12
2022-09-03T19:51:23.965Z,1.75
2022-09-03T19:54:11.051Z,1.50
2022-09-03T19:56:59.869Z,1.73
2022-09-03T19:59:54.888Z,1.70
2022-09-03T20:02:43.446Z,1.60
2022-09-03T20:05:36.332Z,1.83
2022-09-03T20:08:23.103Z,1.80
2022-09-03T20:10:55.709Z,1.40
2022-09-03T20:13:23.617Z,1.58
2022-09-03T20:16:07.468Z,1.60
2022-09-03T20:18:35.167Z,1.60
2022-09-03T20:21:25.249Z,1.40
2022-09-03T20:24:14.712Z,1.70
2022-09-03T20:27:01.414Z,1.62
2022-09-03T20:29:36.574Z,1.70
2022-09-03T20:32:35.603Z,1.50
2022-09-03T20:35:31.015Z,1.30
2022-09-03T20:38:03.884Z,1.50
2022-09-03T20:41:08.853Z,1.50
2022-09-03T20:44:04.855Z,1.92
2022-09-03T20:47:07.886Z,1.52
2022-09-03T20:49:57.815Z,1.52
2022-09-03T20:52:45.832Z,1.33
2022-09-03T20:55:36.666Z,1.42
2022-09-03T20:58:34.859Z,1.48
2022-09-03T21:01:14.339Z,1.37
2022-09-03T21:04:08.323Z,1.52
2022-09-03T21:07:01.547Z,1.67
2022-09-03T21:10:01.355Z,1.40
2022-09-03T21:12:44.541Z,1.60
2022-09-03T21:15:12.156Z,1.48
2022-09-03T21:17:52.006Z,1.40
2022-09-03T21:20:22.340Z,1.40
2022-09-03T21:23:13.157Z,1.40
2022-09-03T21:25:55.698Z,1.30
2022-09-03T21:28:40.391Z,1.20
2022-09-03T21:31:18.847Z,1.30
2022-09-03T21:33:54.229Z,1.17
2022-09-03T21:36:30.380Z,1.30
2022-09-03T21:39:09.725Z,1.20
2022-09-03T21:41:43.743Z,1.30
2022-09-03T21:44:30.076Z,1.80
2022-09-03T21:47:06.211Z,1.35
2022-09-03T21:49:51.417Z,1.50
2022-09-03T21:52:37.608Z,1.30
2022-09-03T21:55:40.364Z,1.27
2022-09-03T21:58:29.962Z,1.50
2022-09-03T22:01:07.415Z,1.30
2022-09-03T22:03:35.799Z,1.40
2022-09-03T22:06:18.615Z,1.60
2022-09-03T22:08:59.200Z,1.50
2022-09-03T22:11:33.242Z,1.50
2022-09-03T22:14:12.841Z,1.42
2022-09-03T22:16:58.539Z,1.52
2022-09-03T22:19:28.085Z,1.17
2022-09-03T22:22:01.125Z,1.67
2022-09-03T22:25:04.780Z,1.42
2022-09-03T22:28:00.846Z,1.80
2022-09-03T22:30:39.266Z,1.58
2022-09-03T22:33:10.349Z,1.60
2022-09-03T22:35:57.700Z,1.60
2022-09-03T22:39:02.796Z,1.80
2022-09-03T22:42:08.427Z,1.60
2022-09-03T22:44:53.212Z,1.50
2022-09-03T22:47:40.022Z,1.90
2022-09-03T22:50:28.251Z,1.50
2022-09-03T22:53:18.233Z,1.60
2022-09-03T22:55:59.649Z,1.60
2022-09-03T22:58:34.099Z,1.58
2022-09-03T23:01:12.767Z,1.45
2022-09-03T23:03:55.313Z,1.87
2022-09-03T23:06:32.518Z,1.52
2022-09-03T23:09:04.925Z,1.50
2022-09-03T23:11:50.305Z,1.48
2022-09-03T23:14:28.868Z,1.75
2022-09-03T23:17:06.353Z,1.60
2022-09-03T23:19:44.358Z,1.80
2022-09-03T23:22:33.167Z,1.70
2022-09-03T23:25:06.403Z,1.90
2022-09-03T23:27:42.361Z,1.55
2022-09-03T23:30:10.520Z,1.60
2022-09-03T23:32:39.619Z,1.90
2022-09-03T23:35:16.240Z,1.60
2022-09-03T23:38:06.111Z,1.70
2022-09-03T23:40:46.130Z,1.55
2022-09-03T23:43:28.521Z,1.70
2022-09-03T23:46:09.585Z,1.60
2022-09-03T23:48:46.320Z,1.60
2022-09-03T23:51:22.809Z,1.70
2022-09-03T23:54:18.886Z,1.80
2022-09-03T23:57:14.764Z,1.62
